Current Conditions
Rain
Conditions



Pressure
1022.92 (hPa) - 30.21 (inHG)
Visibility

3.7 (miles) - 6.0 (km)
Temperature
10  °C
Temperature
10  °C
Dewpoint
100  %
 Humidity
Wind Speed
8  mph
7  kts
13  km/h
3.6  m/s
Wind Direction
N
45°
E
90°
135°
S
180°
225°
W
270°
315°
 230°

South West
Airport Data
EGAC
George Best Belfast City Airport
Metar :EGAC 030350Z AUTO 23007KT 6000 -RADZ BKN008 OVC011 10/10 Q1023 RERA
Fri 3rd February 03:50 am
Raw Metar Info
Raw METAR is the most common format in the world for the transmission of observational weather data. It is highly standardized through the International Civil Aviation Organization (ICAO), which allows it to be understood throughout most of the world.
API Info
Data Provided by
https://www.checkwx.com/weather/EGAC

Aviation Weather providing METAR, TAF, AIRMET, SIGMET and OUTLOOK Weather Reports
© Info
CSS/SVG/PHP scripts were developed by weather34 for use in the weather34 template © 2015-2023

Guide Info provided by Metar-Wikipedia